New Rooks County (RCP)
Stockton, KS
Field Elevation: 1999
Lat: 39°20.80N  Long: 99°18.28W
CTAF/Unicom Freq: 122.9000
   
    
Weather Advisories
12/23/2014 02:50 Z
Altimeter 29.60" Hg
Wind 260° @ 12 KT
Gusts --
Visibility 10 SM
Temperature 4° C (39° F)
Dewpoint -4° C (25° F)
Relative Humidity 57%
Density Altitude --
Condensation Altitude 5,900 feet
Wind Chill 0° C (32° F)
  Wind and Runways
Indicated Runway = 18
History
 
 
More Info
All DigiWx sites map
NOAA Forecast
 
Airport IQ 5010
(FLV) Sherman Airfield
(K68) Garnett Municipal Airport
 
about DigiWx
 
FAA Disclaimer: The data displayed is for advisory purposes only and is not to be used for flight planning or operations. For official data, please call (not available) to hear the current automated AWOS voice message.
  METAR RCP 230250Z AUTO 26012KT 10SM 04/M04 A2960